sensor_id;sensor_type;location;lat;lon;timestamp;P1;durP1;ratioP1;P2;durP2;ratioP2
79025;SDS011;74892;44.760;37.726;2024-02-14T00:00:01;55.55;;;16.52;;
79025;SDS011;74892;44.760;37.726;2024-02-14T00:01:07;64.15;;;16.30;;
79025;SDS011;74892;44.760;37.726;2024-02-14T00:02:12;76.65;;;19.13;;
79025;SDS011;74892;44.760;37.726;2024-02-14T00:03:14;78.80;;;18.42;;
79025;SDS011;74892;44.760;37.726;2024-02-14T00:04:15;60.25;;;17.77;;
79025;SDS011;74892;44.760;37.726;2024-02-14T00:05:17;57.47;;;15.32;;
79025;SDS011;74892;44.760;37.726;2024-02-14T00:06:19;67.43;;;19.75;;
79025;SDS011;74892;44.760;37.726;2024-02-14T00:07:21;70.32;;;21.40;;
79025;SDS011;74892;44.760;37.726;2024-02-14T00:08:23;58.25;;;17.55;;
79025;SDS011;74892;44.760;37.726;2024-02-14T00:09:24;54.42;;;17.67;;
79025;SDS011;74892;44.760;37.726;2024-02-14T00:10:26;55.45;;;18.05;;
79025;SDS011;74892;44.760;37.726;2024-02-14T00:11:28;53.28;;;17.77;;
79025;SDS011;74892;44.760;37.726;2024-02-14T00:12:30;60.85;;;17.23;;
79025;SDS011;74892;44.760;37.726;2024-02-14T00:13:32;57.95;;;19.02;;
79025;SDS011;74892;44.760;37.726;2024-02-14T00:14:35;63.55;;;19.35;;
79025;SDS011;74892;44.760;37.726;2024-02-14T00:15:36;63.42;;;16.75;;
79025;SDS011;74892;44.760;37.726;2024-02-14T00:16:38;59.53;;;17.13;;
79025;SDS011;74892;44.760;37.726;2024-02-14T00:17:40;61.92;;;17.30;;
79025;SDS011;74892;44.760;37.726;2024-02-14T00:18:44;73.47;;;19.48;;
79025;SDS011;74892;44.760;37.726;2024-02-14T00:19:46;72.20;;;17.30;;
79025;SDS011;74892;44.760;37.726;2024-02-14T00:20:48;54.28;;;14.73;;
79025;SDS011;74892;44.760;37.726;2024-02-14T00:21:50;59.78;;;16.58;;
79025;SDS011;74892;44.760;37.726;2024-02-14T00:22:51;68.97;;;16.17;;
79025;SDS011;74892;44.760;37.726;2024-02-14T00:23:53;69.82;;;16.88;;
79025;SDS011;74892;44.760;37.726;2024-02-14T00:24:55;71.35;;;16.73;;
79025;SDS011;74892;44.760;37.726;2024-02-14T00:25:56;75.95;;;17.52;;
79025;SDS011;74892;44.760;37.726;2024-02-14T00:26:58;62.67;;;17.50;;
79025;SDS011;74892;44.760;37.726;2024-02-14T00:28:01;68.05;;;18.90;;
79025;SDS011;74892;44.760;37.726;2024-02-14T00:29:04;76.10;;;18.65;;
79025;SDS011;74892;44.760;37.726;2024-02-14T00:30:06;83.35;;;18.02;;
79025;SDS011;74892;44.760;37.726;2024-02-14T00:31:28;74.60;;;19.20;;
79025;SDS011;74892;44.760;37.726;2024-02-14T00:32:45;84.65;;;18.48;;
79025;SDS011;74892;44.760;37.726;2024-02-14T00:33:47;72.90;;;16.73;;
79025;SDS011;74892;44.760;37.726;2024-02-14T00:34:48;89.50;;;19.75;;
79025;SDS011;74892;44.760;37.726;2024-02-14T00:35:51;88.22;;;16.48;;
79025;SDS011;74892;44.760;37.726;2024-02-14T00:36:52;69.82;;;17.95;;
79025;SDS011;74892;44.760;37.726;2024-02-14T00:37:55;84.43;;;19.83;;
79025;SDS011;74892;44.760;37.726;2024-02-14T00:38:56;81.38;;;19.17;;
79025;SDS011;74892;44.760;37.726;2024-02-14T00:39:58;85.35;;;20.13;;
79025;SDS011;74892;44.760;37.726;2024-02-14T00:41:00;76.80;;;20.48;;
79025;SDS011;74892;44.760;37.726;2024-02-14T00:42:02;80.30;;;19.60;;
79025;SDS011;74892;44.760;37.726;2024-02-14T00:43:04;74.75;;;20.40;;
79025;SDS011;74892;44.760;37.726;2024-02-14T00:44:05;67.45;;;19.80;;
79025;SDS011;74892;44.760;37.726;2024-02-14T00:45:07;61.05;;;18.40;;
79025;SDS011;74892;44.760;37.726;2024-02-14T00:46:15;65.68;;;17.63;;
79025;SDS011;74892;44.760;37.726;2024-02-14T00:47:18;68.18;;;16.85;;
79025;SDS011;74892;44.760;37.726;2024-02-14T01:03:06;209.77;;;29.92;;
79025;SDS011;74892;44.760;37.726;2024-02-14T01:04:09;224.90;;;32.70;;
79025;SDS011;74892;44.760;37.726;2024-02-14T01:20:43;115.70;;;18.30;;
79025;SDS011;74892;44.760;37.726;2024-02-14T01:21:45;98.45;;;18.65;;
79025;SDS011;74892;44.760;37.726;2024-02-14T01:37:56;95.88;;;15.75;;
79025;SDS011;74892;44.760;37.726;2024-02-14T01:52:33;109.60;;;21.80;;
79025;SDS011;74892;44.760;37.726;2024-02-14T01:53:36;116.45;;;21.10;;
79025;SDS011;74892;44.760;37.726;2024-02-14T01:54:39;102.90;;;20.02;;
79025;SDS011;74892;44.760;37.726;2024-02-14T01:55:41;116.53;;;19.92;;
79025;SDS011;74892;44.760;37.726;2024-02-14T01:56:43;123.82;;;20.40;;
79025;SDS011;74892;44.760;37.726;2024-02-14T01:57:49;112.20;;;19.90;;
79025;SDS011;74892;44.760;37.726;2024-02-14T01:58:51;123.97;;;20.33;;
79025;SDS011;74892;44.760;37.726;2024-02-14T01:59:54;105.75;;;20.80;;
79025;SDS011;74892;44.760;37.726;2024-02-14T02:00:59;101.68;;;20.17;;
79025;SDS011;74892;44.760;37.726;2024-02-14T02:02:02;110.93;;;19.85;;
79025;SDS011;74892;44.760;37.726;2024-02-14T02:03:04;90.47;;;18.15;;
79025;SDS011;74892;44.760;37.726;2024-02-14T02:04:07;114.80;;;20.75;;
79025;SDS011;74892;44.760;37.726;2024-02-14T02:05:09;136.27;;;22.00;;
79025;SDS011;74892;44.760;37.726;2024-02-14T02:06:11;119.63;;;22.58;;
79025;SDS011;74892;44.760;37.726;2024-02-14T02:07:13;116.38;;;20.50;;
79025;SDS011;74892;44.760;37.726;2024-02-14T02:08:15;117.40;;;21.25;;
79025;SDS011;74892;44.760;37.726;2024-02-14T02:09:16;95.05;;;18.75;;
79025;SDS011;74892;44.760;37.726;2024-02-14T02:10:18;104.65;;;22.00;;
79025;SDS011;74892;44.760;37.726;2024-02-14T02:11:45;124.20;;;21.73;;
79025;SDS011;74892;44.760;37.726;2024-02-14T02:28:40;81.25;;;18.38;;
79025;SDS011;74892;44.760;37.726;2024-02-14T02:29:43;73.35;;;16.30;;
79025;SDS011;74892;44.760;37.726;2024-02-14T02:46:24;62.55;;;15.88;;
79025;SDS011;74892;44.760;37.726;2024-02-14T03:03:17;77.47;;;20.33;;
79025;SDS011;74892;44.760;37.726;2024-02-14T03:20:09;128.13;;;20.48;;
79025;SDS011;74892;44.760;37.726;2024-02-14T03:21:14;135.13;;;20.48;;
79025;SDS011;74892;44.760;37.726;2024-02-14T03:22:17;112.65;;;19.65;;
79025;SDS011;74892;44.760;37.726;2024-02-14T03:23:20;137.40;;;22.08;;
79025;SDS011;74892;44.760;37.726;2024-02-14T03:24:24;139.73;;;23.10;;
79025;SDS011;74892;44.760;37.726;2024-02-14T03:25:26;125.90;;;19.83;;
79025;SDS011;74892;44.760;37.726;2024-02-14T03:26:35;115.63;;;19.60;;
79025;SDS011;74892;44.760;37.726;2024-02-14T03:27:37;130.77;;;22.25;;
79025;SDS011;74892;44.760;37.726;2024-02-14T03:28:39;112.60;;;20.55;;
79025;SDS011;74892;44.760;37.726;2024-02-14T03:29:41;97.30;;;17.88;;
79025;SDS011;74892;44.760;37.726;2024-02-14T03:30:45;102.88;;;20.17;;
79025;SDS011;74892;44.760;37.726;2024-02-14T03:31:47;123.53;;;24.58;;
79025;SDS011;74892;44.760;37.726;2024-02-14T03:32:50;100.82;;;21.45;;
79025;SDS011;74892;44.760;37.726;2024-02-14T03:34:55;94.95;;;18.38;;
79025;SDS011;74892;44.760;37.726;2024-02-14T03:35:57;98.90;;;21.50;;
79025;SDS011;74892;44.760;37.726;2024-02-14T03:36:59;93.30;;;22.40;;
79025;SDS011;74892;44.760;37.726;2024-02-14T03:38:03;88.03;;;20.48;;
79025;SDS011;74892;44.760;37.726;2024-02-14T03:39:07;90.65;;;21.77;;
79025;SDS011;74892;44.760;37.726;2024-02-14T03:40:10;100.20;;;22.55;;
79025;SDS011;74892;44.760;37.726;2024-02-14T03:41:12;78.72;;;21.70;;
79025;SDS011;74892;44.760;37.726;2024-02-14T03:42:14;90.72;;;20.80;;
79025;SDS011;74892;44.760;37.726;2024-02-14T03:43:16;84.97;;;22.15;;
79025;SDS011;74892;44.760;37.726;2024-02-14T03:44:18;82.32;;;24.08;;
79025;SDS011;74892;44.760;37.726;2024-02-14T03:45:20;79.78;;;22.02;;
79025;SDS011;74892;44.760;37.726;2024-02-14T03:46:22;73.50;;;21.90;;
79025;SDS011;74892;44.760;37.726;2024-02-14T03:47:24;89.57;;;22.55;;
79025;SDS011;74892;44.760;37.726;2024-02-14T03:48:26;87.03;;;21.52;;
79025;SDS011;74892;44.760;37.726;2024-02-14T03:49:28;73.70;;;21.23;;
79025;SDS011;74892;44.760;37.726;2024-02-14T03:50:31;82.07;;;19.73;;
79025;SDS011;74892;44.760;37.726;2024-02-14T03:51:34;85.93;;;21.58;;
79025;SDS011;74892;44.760;37.726;2024-02-14T03:52:36;76.85;;;20.42;;
79025;SDS011;74892;44.760;37.726;2024-02-14T03:53:38;77.00;;;17.58;;
79025;SDS011;74892;44.760;37.726;2024-02-14T03:54:40;70.05;;;18.77;;
79025;SDS011;74892;44.760;37.726;2024-02-14T03:55:41;66.78;;;16.55;;
79025;SDS011;74892;44.760;37.726;2024-02-14T03:56:44;71.75;;;17.20;;
79025;SDS011;74892;44.760;37.726;2024-02-14T03:57:46;55.05;;;17.23;;
79025;SDS011;74892;44.760;37.726;2024-02-14T03:58:48;59.55;;;16.30;;
79025;SDS011;74892;44.760;37.726;2024-02-14T03:59:50;68.07;;;17.55;;
79025;SDS011;74892;44.760;37.726;2024-02-14T04:00:53;66.45;;;18.08;;
79025;SDS011;74892;44.760;37.726;2024-02-14T04:01:55;65.80;;;17.40;;
79025;SDS011;74892;44.760;37.726;2024-02-14T04:02:59;58.97;;;17.40;;
79025;SDS011;74892;44.760;37.726;2024-02-14T04:04:01;65.85;;;19.17;;
79025;SDS011;74892;44.760;37.726;2024-02-14T04:05:03;73.50;;;19.17;;
79025;SDS011;74892;44.760;37.726;2024-02-14T04:06:08;73.75;;;19.45;;
79025;SDS011;74892;44.760;37.726;2024-02-14T04:07:10;85.20;;;23.92;;
79025;SDS011;74892;44.760;37.726;2024-02-14T04:08:14;99.38;;;22.30;;
79025;SDS011;74892;44.760;37.726;2024-02-14T04:09:17;88.88;;;22.52;;
79025;SDS011;74892;44.760;37.726;2024-02-14T04:10:19;108.50;;;24.23;;
79025;SDS011;74892;44.760;37.726;2024-02-14T04:11:20;93.30;;;21.95;;
79025;SDS011;74892;44.760;37.726;2024-02-14T04:12:22;124.03;;;23.95;;
79025;SDS011;74892;44.760;37.726;2024-02-14T04:13:24;124.53;;;24.52;;
79025;SDS011;74892;44.760;37.726;2024-02-14T04:14:26;110.28;;;23.33;;
79025;SDS011;74892;44.760;37.726;2024-02-14T04:15:28;95.75;;;21.67;;
79025;SDS011;74892;44.760;37.726;2024-02-14T04:16:34;105.82;;;23.25;;
79025;SDS011;74892;44.760;37.726;2024-02-14T04:17:38;113.93;;;21.20;;
79025;SDS011;74892;44.760;37.726;2024-02-14T04:18:42;106.22;;;21.25;;
79025;SDS011;74892;44.760;37.726;2024-02-14T04:19:44;109.63;;;24.73;;
79025;SDS011;74892;44.760;37.726;2024-02-14T04:20:46;104.97;;;19.40;;
79025;SDS011;74892;44.760;37.726;2024-02-14T04:21:48;119.57;;;22.00;;
79025;SDS011;74892;44.760;37.726;2024-02-14T04:22:50;104.28;;;19.60;;
79025;SDS011;74892;44.760;37.726;2024-02-14T04:23:52;96.75;;;19.40;;
79025;SDS011;74892;44.760;37.726;2024-02-14T04:24:54;121.25;;;22.23;;
79025;SDS011;74892;44.760;37.726;2024-02-14T04:25:56;102.38;;;20.45;;
79025;SDS011;74892;44.760;37.726;2024-02-14T04:26:58;94.45;;;19.60;;
79025;SDS011;74892;44.760;37.726;2024-02-14T04:28:04;96.07;;;21.73;;
79025;SDS011;74892;44.760;37.726;2024-02-14T04:29:07;114.60;;;21.10;;
79025;SDS011;74892;44.760;37.726;2024-02-14T04:30:10;109.28;;;21.15;;
79025;SDS011;74892;44.760;37.726;2024-02-14T04:31:32;102.20;;;22.42;;
79025;SDS011;74892;44.760;37.726;2024-02-14T04:32:38;84.05;;;20.45;;
79025;SDS011;74892;44.760;37.726;2024-02-14T04:33:40;98.38;;;21.88;;
79025;SDS011;74892;44.760;37.726;2024-02-14T04:34:42;99.25;;;22.98;;
79025;SDS011;74892;44.760;37.726;2024-02-14T04:35:44;103.63;;;25.23;;
79025;SDS011;74892;44.760;37.726;2024-02-14T04:36:46;114.85;;;22.88;;
79025;SDS011;74892;44.760;37.726;2024-02-14T04:37:48;93.90;;;22.88;;
79025;SDS011;74892;44.760;37.726;2024-02-14T04:38:50;107.32;;;23.70;;
79025;SDS011;74892;44.760;37.726;2024-02-14T04:39:56;114.75;;;26.95;;
79025;SDS011;74892;44.760;37.726;2024-02-14T04:40:58;135.10;;;27.70;;
79025;SDS011;74892;44.760;37.726;2024-02-14T04:42:02;136.63;;;25.98;;
79025;SDS011;74892;44.760;37.726;2024-02-14T04:43:04;117.82;;;24.63;;
79025;SDS011;74892;44.760;37.726;2024-02-14T04:44:06;119.07;;;28.15;;
79025;SDS011;74892;44.760;37.726;2024-02-14T04:45:08;120.78;;;27.42;;
79025;SDS011;74892;44.760;37.726;2024-02-14T04:46:27;146.90;;;28.55;;
79025;SDS011;74892;44.760;37.726;2024-02-14T04:47:29;164.30;;;30.20;;
79025;SDS011;74892;44.760;37.726;2024-02-14T04:48:31;127.45;;;26.42;;
79025;SDS011;74892;44.760;37.726;2024-02-14T04:49:33;164.00;;;29.73;;
79025;SDS011;74892;44.760;37.726;2024-02-14T04:50:34;136.93;;;24.95;;
79025;SDS011;74892;44.760;37.726;2024-02-14T04:51:38;135.40;;;26.63;;
79025;SDS011;74892;44.760;37.726;2024-02-14T04:52:39;125.75;;;25.70;;
79025;SDS011;74892;44.760;37.726;2024-02-14T04:53:41;133.93;;;27.40;;
79025;SDS011;74892;44.760;37.726;2024-02-14T04:54:43;148.82;;;25.35;;
79025;SDS011;74892;44.760;37.726;2024-02-14T04:55:44;136.75;;;27.63;;
79025;SDS011;74892;44.760;37.726;2024-02-14T04:56:46;136.75;;;28.23;;
79025;SDS011;74892;44.760;37.726;2024-02-14T04:57:48;125.07;;;26.75;;
79025;SDS011;74892;44.760;37.726;2024-02-14T04:58:50;114.05;;;25.13;;
79025;SDS011;74892;44.760;37.726;2024-02-14T04:59:51;135.63;;;27.48;;
79025;SDS011;74892;44.760;37.726;2024-02-14T05:00:53;150.40;;;27.02;;
79025;SDS011;74892;44.760;37.726;2024-02-14T05:01:58;125.20;;;25.65;;
79025;SDS011;74892;44.760;37.726;2024-02-14T05:02:59;149.27;;;27.42;;
79025;SDS011;74892;44.760;37.726;2024-02-14T05:04:02;141.90;;;29.40;;
79025;SDS011;74892;44.760;37.726;2024-02-14T05:05:05;155.20;;;27.40;;
79025;SDS011;74892;44.760;37.726;2024-02-14T05:06:09;166.75;;;29.77;;
79025;SDS011;74892;44.760;37.726;2024-02-14T05:07:11;159.40;;;29.17;;
79025;SDS011;74892;44.760;37.726;2024-02-14T05:08:13;161.65;;;27.00;;
79025;SDS011;74892;44.760;37.726;2024-02-14T05:09:15;150.45;;;28.08;;
79025;SDS011;74892;44.760;37.726;2024-02-14T05:10:17;170.65;;;27.55;;
79025;SDS011;74892;44.760;37.726;2024-02-14T05:11:19;182.95;;;29.73;;
79025;SDS011;74892;44.760;37.726;2024-02-14T05:12:21;141.45;;;25.65;;
79025;SDS011;74892;44.760;37.726;2024-02-14T05:13:22;149.30;;;27.83;;
79025;SDS011;74892;44.760;37.726;2024-02-14T05:14:25;147.00;;;27.85;;
79025;SDS011;74892;44.760;37.726;2024-02-14T05:15:27;150.93;;;28.10;;
79025;SDS011;74892;44.760;37.726;2024-02-14T05:16:29;128.70;;;25.33;;
79025;SDS011;74892;44.760;37.726;2024-02-14T05:17:31;159.10;;;25.90;;
79025;SDS011;74892;44.760;37.726;2024-02-14T05:18:32;138.20;;;26.73;;
79025;SDS011;74892;44.760;37.726;2024-02-14T05:19:35;123.20;;;27.00;;
79025;SDS011;74892;44.760;37.726;2024-02-14T05:20:37;158.07;;;27.60;;
79025;SDS011;74892;44.760;37.726;2024-02-14T05:21:39;134.65;;;25.27;;
79025;SDS011;74892;44.760;37.726;2024-02-14T05:22:41;119.45;;;25.52;;
79025;SDS011;74892;44.760;37.726;2024-02-14T05:23:43;148.30;;;28.13;;
79025;SDS011;74892;44.760;37.726;2024-02-14T05:24:45;146.70;;;28.08;;
79025;SDS011;74892;44.760;37.726;2024-02-14T05:25:47;147.27;;;27.00;;
79025;SDS011;74892;44.760;37.726;2024-02-14T05:26:51;139.20;;;26.73;;
79025;SDS011;74892;44.760;37.726;2024-02-14T05:27:53;136.38;;;28.90;;
79025;SDS011;74892;44.760;37.726;2024-02-14T05:28:55;137.32;;;27.70;;
79025;SDS011;74892;44.760;37.726;2024-02-14T05:29:57;136.20;;;25.58;;
79025;SDS011;74892;44.760;37.726;2024-02-14T05:30:59;125.05;;;23.70;;
79025;SDS011;74892;44.760;37.726;2024-02-14T05:32:09;141.02;;;25.20;;
79025;SDS011;74892;44.760;37.726;2024-02-14T05:33:11;137.90;;;25.73;;
79025;SDS011;74892;44.760;37.726;2024-02-14T05:34:13;119.38;;;25.95;;
79025;SDS011;74892;44.760;37.726;2024-02-14T05:35:14;130.57;;;24.83;;
79025;SDS011;74892;44.760;37.726;2024-02-14T05:36:16;122.53;;;23.67;;
79025;SDS011;74892;44.760;37.726;2024-02-14T05:37:18;112.18;;;23.63;;
79025;SDS011;74892;44.760;37.726;2024-02-14T05:38:20;116.40;;;23.85;;
79025;SDS011;74892;44.760;37.726;2024-02-14T05:39:22;106.30;;;22.52;;
79025;SDS011;74892;44.760;37.726;2024-02-14T05:40:23;99.93;;;21.55;;
79025;SDS011;74892;44.760;37.726;2024-02-14T05:41:25;104.75;;;21.70;;
79025;SDS011;74892;44.760;37.726;2024-02-14T05:42:27;89.80;;;19.25;;
79025;SDS011;74892;44.760;37.726;2024-02-14T05:43:28;91.38;;;20.48;;
79025;SDS011;74892;44.760;37.726;2024-02-14T05:44:30;98.68;;;20.05;;
79025;SDS011;74892;44.760;37.726;2024-02-14T05:45:33;106.15;;;21.88;;
79025;SDS011;74892;44.760;37.726;2024-02-14T05:47:38;100.53;;;22.98;;
79025;SDS011;74892;44.760;37.726;2024-02-14T05:48:40;103.38;;;20.88;;
79025;SDS011;74892;44.760;37.726;2024-02-14T05:49:42;128.90;;;23.48;;
79025;SDS011;74892;44.760;37.726;2024-02-14T05:50:43;95.72;;;23.45;;
79025;SDS011;74892;44.760;37.726;2024-02-14T05:51:45;86.45;;;19.83;;
79025;SDS011;74892;44.760;37.726;2024-02-14T05:52:47;108.97;;;28.08;;
79025;SDS011;74892;44.760;37.726;2024-02-14T05:53:49;128.30;;;27.63;;
79025;SDS011;74892;44.760;37.726;2024-02-14T05:54:50;130.80;;;30.33;;
79025;SDS011;74892;44.760;37.726;2024-02-14T05:55:52;173.18;;;48.63;;
79025;SDS011;74892;44.760;37.726;2024-02-14T05:56:54;198.65;;;66.32;;
79025;SDS011;74892;44.760;37.726;2024-02-14T05:57:56;190.75;;;66.30;;
79025;SDS011;74892;44.760;37.726;2024-02-14T05:58:59;180.77;;;59.28;;
79025;SDS011;74892;44.760;37.726;2024-02-14T06:00:01;160.35;;;48.13;;
79025;SDS011;74892;44.760;37.726;2024-02-14T06:01:12;169.38;;;55.45;;
79025;SDS011;74892;44.760;37.726;2024-02-14T06:02:14;157.68;;;53.70;;
79025;SDS011;74892;44.760;37.726;2024-02-14T06:03:16;164.70;;;53.30;;
79025;SDS011;74892;44.760;37.726;2024-02-14T06:04:18;149.52;;;52.42;;
79025;SDS011;74892;44.760;37.726;2024-02-14T06:05:19;147.18;;;53.53;;
79025;SDS011;74892;44.760;37.726;2024-02-14T06:06:21;163.57;;;50.05;;
79025;SDS011;74892;44.760;37.726;2024-02-14T06:07:24;152.25;;;43.92;;
79025;SDS011;74892;44.760;37.726;2024-02-14T06:08:26;145.75;;;44.08;;
79025;SDS011;74892;44.760;37.726;2024-02-14T06:09:28;154.93;;;46.97;;
79025;SDS011;74892;44.760;37.726;2024-02-14T06:10:30;153.15;;;51.63;;
79025;SDS011;74892;44.760;37.726;2024-02-14T06:11:31;165.88;;;52.85;;
79025;SDS011;74892;44.760;37.726;2024-02-14T06:12:33;159.20;;;47.10;;
79025;SDS011;74892;44.760;37.726;2024-02-14T06:13:36;152.07;;;45.70;;
79025;SDS011;74892;44.760;37.726;2024-02-14T06:14:38;150.40;;;48.13;;
79025;SDS011;74892;44.760;37.726;2024-02-14T06:15:40;135.60;;;39.38;;
79025;SDS011;74892;44.760;37.726;2024-02-14T06:16:42;148.30;;;41.78;;
79025;SDS011;74892;44.760;37.726;2024-02-14T06:17:45;137.50;;;37.38;;
79025;SDS011;74892;44.760;37.726;2024-02-14T06:18:46;125.03;;;35.38;;
79025;SDS011;74892;44.760;37.726;2024-02-14T06:19:48;145.77;;;37.28;;
79025;SDS011;74892;44.760;37.726;2024-02-14T06:20:50;115.72;;;31.08;;
79025;SDS011;74892;44.760;37.726;2024-02-14T06:21:52;117.47;;;31.15;;
79025;SDS011;74892;44.760;37.726;2024-02-14T06:22:54;133.38;;;31.75;;
79025;SDS011;74892;44.760;37.726;2024-02-14T06:23:55;120.13;;;31.42;;
79025;SDS011;74892;44.760;37.726;2024-02-14T06:25:00;128.15;;;32.17;;
79025;SDS011;74892;44.760;37.726;2024-02-14T06:26:02;130.90;;;32.47;;
79025;SDS011;74892;44.760;37.726;2024-02-14T06:27:07;137.07;;;30.50;;
79025;SDS011;74892;44.760;37.726;2024-02-14T06:28:08;125.22;;;29.92;;
79025;SDS011;74892;44.760;37.726;2024-02-14T06:29:10;144.20;;;30.15;;
79025;SDS011;74892;44.760;37.726;2024-02-14T06:30:12;141.23;;;30.85;;
79025;SDS011;74892;44.760;37.726;2024-02-14T06:31:14;129.40;;;33.15;;
79025;SDS011;74892;44.760;37.726;2024-02-14T06:32:16;144.55;;;32.40;;
79025;SDS011;74892;44.760;37.726;2024-02-14T06:33:17;135.30;;;34.95;;
79025;SDS011;74892;44.760;37.726;2024-02-14T06:34:19;128.02;;;33.60;;
79025;SDS011;74892;44.760;37.726;2024-02-14T09:15:37;15.65;;;8.25;;
79025;SDS011;74892;44.760;37.726;2024-02-14T09:16:39;14.63;;;7.32;;
79025;SDS011;74892;44.760;37.726;2024-02-14T09:17:41;18.25;;;8.75;;
79025;SDS011;74892;44.760;37.726;2024-02-14T09:18:44;15.93;;;7.38;;
79025;SDS011;74892;44.760;37.726;2024-02-14T09:19:47;13.80;;;7.05;;
79025;SDS011;74892;44.760;37.726;2024-02-14T09:20:49;13.55;;;7.30;;
79025;SDS011;74892;44.760;37.726;2024-02-14T09:21:51;17.73;;;7.80;;
79025;SDS011;74892;44.760;37.726;2024-02-14T09:22:53;17.35;;;7.53;;
79025;SDS011;74892;44.760;37.726;2024-02-14T09:23:55;13.68;;;8.50;;
79025;SDS011;74892;44.760;37.726;2024-02-14T09:24:57;13.88;;;7.70;;
79025;SDS011;74892;44.760;37.726;2024-02-14T09:25:58;13.57;;;7.88;;
79025;SDS011;74892;44.760;37.726;2024-02-14T09:27:00;14.90;;;7.55;;
79025;SDS011;74892;44.760;37.726;2024-02-14T09:28:03;11.85;;;7.00;;
79025;SDS011;74892;44.760;37.726;2024-02-14T09:29:05;17.10;;;7.82;;
79025;SDS011;74892;44.760;37.726;2024-02-14T09:30:07;17.02;;;7.70;;
79025;SDS011;74892;44.760;37.726;2024-02-14T09:31:08;13.48;;;8.20;;
79025;SDS011;74892;44.760;37.726;2024-02-14T09:32:13;15.38;;;7.65;;
79025;SDS011;74892;44.760;37.726;2024-02-14T09:33:14;13.65;;;7.15;;
79025;SDS011;74892;44.760;37.726;2024-02-14T09:34:16;15.88;;;7.78;;
79025;SDS011;74892;44.760;37.726;2024-02-14T09:35:21;15.77;;;8.10;;
79025;SDS011;74892;44.760;37.726;2024-02-14T09:36:22;14.65;;;7.65;;
79025;SDS011;74892;44.760;37.726;2024-02-14T09:37:25;16.25;;;7.70;;
79025;SDS011;74892;44.760;37.726;2024-02-14T09:38:29;15.82;;;7.35;;
79025;SDS011;74892;44.760;37.726;2024-02-14T09:39:31;12.32;;;6.90;;
79025;SDS011;74892;44.760;37.726;2024-02-14T09:40:33;12.10;;;7.28;;
79025;SDS011;74892;44.760;37.726;2024-02-14T09:41:37;17.48;;;7.38;;
79025;SDS011;74892;44.760;37.726;2024-02-14T09:42:44;14.02;;;7.65;;
79025;SDS011;74892;44.760;37.726;2024-02-14T09:43:59;13.57;;;6.88;;
79025;SDS011;74892;44.760;37.726;2024-02-14T09:45:00;13.88;;;6.13;;
79025;SDS011;74892;44.760;37.726;2024-02-14T09:46:04;9.98;;;5.68;;
79025;SDS011;74892;44.760;37.726;2024-02-14T09:47:05;14.77;;;6.47;;
79025;SDS011;74892;44.760;37.726;2024-02-14T09:48:10;12.52;;;6.40;;
79025;SDS011;74892;44.760;37.726;2024-02-14T09:49:14;9.73;;;6.20;;
79025;SDS011;74892;44.760;37.726;2024-02-14T09:50:21;12.80;;;6.22;;
79025;SDS011;74892;44.760;37.726;2024-02-14T09:51:24;13.63;;;6.10;;
79025;SDS011;74892;44.760;37.726;2024-02-14T09:52:26;10.13;;;6.40;;
79025;SDS011;74892;44.760;37.726;2024-02-14T09:53:28;10.15;;;6.70;;
79025;SDS011;74892;44.760;37.726;2024-02-14T09:54:31;12.80;;;6.25;;
79025;SDS011;74892;44.760;37.726;2024-02-14T09:55:36;10.05;;;6.03;;
79025;SDS011;74892;44.760;37.726;2024-02-14T09:56:39;11.10;;;6.38;;
79025;SDS011;74892;44.760;37.726;2024-02-14T09:57:41;14.25;;;5.78;;
79025;SDS011;74892;44.760;37.726;2024-02-14T09:58:43;9.45;;;6.53;;
79025;SDS011;74892;44.760;37.726;2024-02-14T09:59:51;10.50;;;5.88;;
79025;SDS011;74892;44.760;37.726;2024-02-14T10:00:55;11.23;;;6.85;;
79025;SDS011;74892;44.760;37.726;2024-02-14T10:01:57;12.25;;;6.20;;
79025;SDS011;74892;44.760;37.726;2024-02-14T10:02:59;10.82;;;6.20;;
79025;SDS011;74892;44.760;37.726;2024-02-14T10:04:01;10.70;;;6.65;;
79025;SDS011;74892;44.760;37.726;2024-02-14T10:05:04;9.75;;;6.30;;
79025;SDS011;74892;44.760;37.726;2024-02-14T10:06:05;12.05;;;6.93;;
79025;SDS011;74892;44.760;37.726;2024-02-14T10:07:07;12.90;;;6.20;;
79025;SDS011;74892;44.760;37.726;2024-02-14T10:08:09;10.32;;;6.38;;
79025;SDS011;74892;44.760;37.726;2024-02-14T10:09:12;12.68;;;6.43;;
79025;SDS011;74892;44.760;37.726;2024-02-14T10:10:13;15.45;;;7.13;;
79025;SDS011;74892;44.760;37.726;2024-02-14T10:11:15;11.30;;;6.18;;
79025;SDS011;74892;44.760;37.726;2024-02-14T10:12:18;11.82;;;6.80;;
79025;SDS011;74892;44.760;37.726;2024-02-14T10:13:20;9.48;;;5.85;;
79025;SDS011;74892;44.760;37.726;2024-02-14T10:14:22;10.45;;;6.20;;
79025;SDS011;74892;44.760;37.726;2024-02-14T10:15:24;11.80;;;5.95;;
79025;SDS011;74892;44.760;37.726;2024-02-14T10:16:26;13.00;;;6.78;;
79025;SDS011;74892;44.760;37.726;2024-02-14T10:17:27;9.68;;;6.00;;
79025;SDS011;74892;44.760;37.726;2024-02-14T10:18:29;7.43;;;5.70;;
79025;SDS011;74892;44.760;37.726;2024-02-14T10:19:32;8.15;;;5.82;;
79025;SDS011;74892;44.760;37.726;2024-02-14T10:20:35;12.90;;;6.03;;
79025;SDS011;74892;44.760;37.726;2024-02-14T10:21:41;11.35;;;5.60;;
79025;SDS011;74892;44.760;37.726;2024-02-14T10:22:43;11.57;;;5.93;;
79025;SDS011;74892;44.760;37.726;2024-02-14T10:23:46;12.75;;;6.45;;
79025;SDS011;74892;44.760;37.726;2024-02-14T10:24:48;16.42;;;6.40;;
79025;SDS011;74892;44.760;37.726;2024-02-14T10:25:50;12.02;;;6.00;;
79025;SDS011;74892;44.760;37.726;2024-02-14T10:26:54;17.63;;;7.13;;
79025;SDS011;74892;44.760;37.726;2024-02-14T10:28:02;13.40;;;7.35;;
79025;SDS011;74892;44.760;37.726;2024-02-14T10:29:06;14.05;;;6.07;;
79025;SDS011;74892;44.760;37.726;2024-02-14T10:30:09;12.30;;;6.43;;
79025;SDS011;74892;44.760;37.726;2024-02-14T10:31:11;11.77;;;6.28;;
79025;SDS011;74892;44.760;37.726;2024-02-14T10:32:17;10.02;;;5.90;;
79025;SDS011;74892;44.760;37.726;2024-02-14T10:33:18;10.40;;;5.97;;
79025;SDS011;74892;44.760;37.726;2024-02-14T10:34:26;10.25;;;5.78;;
79025;SDS011;74892;44.760;37.726;2024-02-14T10:35:27;10.27;;;6.50;;
79025;SDS011;74892;44.760;37.726;2024-02-14T10:36:32;13.73;;;7.90;;
79025;SDS011;74892;44.760;37.726;2024-02-14T10:37:36;18.08;;;8.20;;
79025;SDS011;74892;44.760;37.726;2024-02-14T10:38:38;20.98;;;14.82;;
79025;SDS011;74892;44.760;37.726;2024-02-14T10:39:41;20.73;;;14.65;;
79025;SDS011;74892;44.760;37.726;2024-02-14T10:40:47;25.48;;;17.60;;
79025;SDS011;74892;44.760;37.726;2024-02-14T10:41:49;31.30;;;23.52;;
79025;SDS011;74892;44.760;37.726;2024-02-14T10:42:51;22.75;;;15.52;;
79025;SDS011;74892;44.760;37.726;2024-02-14T10:43:55;24.25;;;16.85;;
79025;SDS011;74892;44.760;37.726;2024-02-14T10:44:56;29.35;;;21.60;;